Rumusan perlumbaan (Litar: Silverstone | Musim: 19 | Perlumbaan: 9 | Kumpulan: Elite)

Musim:  Perlumbaan:

Pilih kumpulan lain:

Pos Perkembangan Tayar Kew Nama pengurus Masa perlumbaan Lap Hentian pit Lap terbaik Kelajuan purata Masa lap terbaik
01. Tidak berubah ±0 Michelini   Rui Fonseca 1h25:25.440 60 2 1:22.975 216.54km/h 17.313s
02. +2 +2 Michelini   Jari Aareskoski3 + 1.582 60 2 1:23.361 216.48km/h 8.512s
03. +3 +3 Michelini   Vladimir Islentiev2 + 3.091 60 2 1:23.365 216.41km/h 8.617s
04. +3 +3 Michelini   Joan Centellas + 19.098 60 2 1:23.475 215.74km/h 11.854s
05. -2 -2 Michelini   Edvinas Pranculevicius + 25.013 60 2 1:23.767 215.49km/h 10.417s
06. +4 +4 Michelini   João Monteiro + 35.841 60 2 1:23.684 215.04km/h 12.176s
07. -2 -2 Michelini   Jan Zaluski + 45.591 60 2 1:24.013 214.63km/h 13.896s
08. +5 +5 Michelini   Marek Marchewka + 45.935 60 2 1:23.749 214.62km/h 12.317s
09. +2 +2 Michelini   Nuno Vicente + 49.813 60 2 1:23.816 214.46km/h 13.246s
10. +6 +6 Michelini   Martynas Molneris + 56.609 60 2 1:24.098 214.18km/h 13.338s
11. -9 -9 Michelini   Toygun Senler1 + 1:07.591 60 4 1:23.506 213.72km/h 8.844s
12. -3 -3 Michelini   Zdenek Hladik + 1:13.921 60 2 1:24.277 213.46km/h 12.283s
13. -5 -5 Michelini   Aleksej Sutkin + 1:15.125 60 2 1:24.124 213.42km/h 13.144s
14. +8 +8 Dunnolop   Leandro Sereno2 + 1:22.112 60 2 1:24.248 213.13km/h 9.358s
15. +5 +5 Michelini   Rimantas Sagatas + 1:43.157 59 2 1:24.540 212.27km/h 15.279s
16. +2 +2 Michelini   Tomasz Kaminski + 1:51.000 59 2 1:24.611 211.95km/h 11.846s
17. -2 -2 Michelini   Denis Grahov + 2:07.212 59 3 1:24.760 211.30km/h 13.024s
18. +6 +6 Dunnolop   Gabriel Toma + 2:25.482 59 2 1:25.031 210.57km/h 18.799s
19. +6 +6 Dunnolop   Andrius Talandzevicius + 2:29.539 59 2 1:25.114 210.40km/h 14.510s
20. -6 -6 Michelini   Wagner Souza + 2:39.585 59 2 1:25.655 210.00km/h 14.844s
21. -9 -9 Michelini   Renato Svaiter + 3:17.178 58 2 1:26.484 208.52km/h 12.874s
22. +9 +9 Michelini   Lucas Secundo Abreu + 3:33.525 58 1 1:26.992 207.88km/h 17.437s
23. +4 +4 Dunnolop   Oli Jais + 3:50.848 58 4 1:25.259 207.21km/h 11.150s
24. +2 +2 Michelini   Laila Britāle + 4:38.804 57 1 1:28.189 205.37km/h 13.370s
25. -6 -6 Michelini   Vitor Novo + 4:40.145 57 2 1:27.363 205.32km/h 15.205s
26. -5 -5 Badyear   Michael Monaco + 4:50.484 57 2 1:27.969 204.93km/h 18.033s
27. -4 -4 Dunnolop   Kostas Farsalinos + 4:50.809 57 2 1:27.854 204.92km/h 21.167s
28. -11 -11 Badyear   Toni Söyrinki + 5:09.887 57 3 1:27.363 204.20km/h 15.077s
29. +1 +1 Dunnolop   Daniele Ambroggi + 5:50.892 56 2 1:28.762 202.67km/h 15.369s
30. -1 -1 Badyear   Lee Ifans + 6:00.711 56 2 1:28.791 202.31km/h 16.083s
31. +1 +1 Pipirelli   Mikko Heikkinen + 6:44.545 56 2 1:29.724 200.70km/h 15.460s
32. +1 +1 Pipirelli   Craig Templeman + 6:55.350 56 1 1:30.169 200.31km/h 21.737s
33. +1 +1 Pipirelli   Philipp Hartmann + 7:21.477 55 2 1:29.907 199.37km/h 17.571s
34. +2 +2 Pipirelli   Martynas Atkočius + 8:15.745 55 3 1:30.279 197.45km/h 16.531s
35. Tidak berubah ±0 Michelini   Martin Rosina + 8:45.121 54 3 1:30.013 196.42km/h 13.256s
36. -8 -8 Dunnolop   Michalis Marolachakis + 8:51.114 54 3 1:30.627 196.21km/h 14.238s
Tidak tersenarai
37. Tidak berubah ±0 Michelini   Filipe Miguel Masalah teknikal 40 1 1:32.235    28.646s